Terminal Aerodrome Forecast
Issued by NWS Greer, SC

Home | Current Version | Previous Version | Text Only | Print | Product List | Glossary On
Versions: 1 2 3 4 5 6 7 8 9 10 11 12 13 14 15 16 17 18 19
000
FTUS42 KGSP 200500
TAFGSP
TAF
KGSP 200520Z 2006/2106 00000KT P6SM SCT250
      TEMPO 2009/2013 5SM BR BKN040
     FM201300 35003KT P6SM SCT060
     FM202000 26006KT P6SM SCT060
     FM210300 30003KT P6SM SCT060=

USA.gov is the U.S. government's official web portal to all federal, state and local government web resources and services.